sensor_id;sensor_type;location;lat;lon;timestamp;P1;durP1;ratioP1;P2;durP2;ratioP2
1503;SDS011;743;47.076;15.494;2023-02-28T00:00:39;40.88;;;22.75;;
1503;SDS011;743;47.076;15.494;2023-02-28T00:03:07;42.05;;;22.58;;
1503;SDS011;743;47.076;15.494;2023-02-28T00:05:39;43.88;;;24.00;;
1503;SDS011;743;47.076;15.494;2023-02-28T00:08:07;46.78;;;30.48;;
1503;SDS011;743;47.076;15.494;2023-02-28T00:10:40;42.45;;;27.52;;
1503;SDS011;743;47.076;15.494;2023-02-28T00:13:09;46.35;;;28.85;;
1503;SDS011;743;47.076;15.494;2023-02-28T00:15:38;48.45;;;29.95;;
1503;SDS011;743;47.076;15.494;2023-02-28T00:18:08;51.20;;;32.80;;
1503;SDS011;743;47.076;15.494;2023-02-28T00:20:38;47.75;;;28.80;;
1503;SDS011;743;47.076;15.494;2023-02-28T00:23:07;49.22;;;30.92;;
1503;SDS011;743;47.076;15.494;2023-02-28T00:25:38;52.97;;;30.83;;
1503;SDS011;743;47.076;15.494;2023-02-28T00:28:10;46.92;;;29.27;;
1503;SDS011;743;47.076;15.494;2023-02-28T00:30:38;60.08;;;33.47;;
1503;SDS011;743;47.076;15.494;2023-02-28T00:33:06;43.03;;;27.45;;
1503;SDS011;743;47.076;15.494;2023-02-28T00:35:36;50.03;;;31.27;;
1503;SDS011;743;47.076;15.494;2023-02-28T00:38:08;39.22;;;26.02;;
1503;SDS011;743;47.076;15.494;2023-02-28T00:40:37;47.55;;;29.65;;
1503;SDS011;743;47.076;15.494;2023-02-28T00:43:08;45.65;;;26.38;;
1503;SDS011;743;47.076;15.494;2023-02-28T00:45:36;48.20;;;36.63;;
1503;SDS011;743;47.076;15.494;2023-02-28T00:48:05;29.58;;;19.35;;
1503;SDS011;743;47.076;15.494;2023-02-28T00:50:34;34.30;;;22.67;;
1503;SDS011;743;47.076;15.494;2023-02-28T00:53:03;28.88;;;19.17;;
1503;SDS011;743;47.076;15.494;2023-02-28T00:55:31;37.13;;;22.60;;
1503;SDS011;743;47.076;15.494;2023-02-28T00:58:01;27.17;;;17.98;;
1503;SDS011;743;47.076;15.494;2023-02-28T01:00:28;40.22;;;23.05;;
1503;SDS011;743;47.076;15.494;2023-02-28T01:02:59;42.53;;;26.92;;
1503;SDS011;743;47.076;15.494;2023-02-28T01:05:27;31.42;;;22.30;;
1503;SDS011;743;47.076;15.494;2023-02-28T01:07:55;38.67;;;22.75;;
1503;SDS011;743;47.076;15.494;2023-02-28T01:10:24;39.20;;;24.42;;
1503;SDS011;743;47.076;15.494;2023-02-28T01:12:58;36.63;;;21.25;;
1503;SDS011;743;47.076;15.494;2023-02-28T01:17:57;33.35;;;23.83;;
1503;SDS011;743;47.076;15.494;2023-02-28T01:20:25;29.52;;;20.80;;
1503;SDS011;743;47.076;15.494;2023-02-28T01:22:53;39.42;;;25.92;;
1503;SDS011;743;47.076;15.494;2023-02-28T01:25:21;35.90;;;22.58;;
1503;SDS011;743;47.076;15.494;2023-02-28T01:28:00;44.53;;;25.27;;
1503;SDS011;743;47.076;15.494;2023-02-28T01:30:31;44.40;;;25.10;;
1503;SDS011;743;47.076;15.494;2023-02-28T01:33:00;41.85;;;24.88;;
1503;SDS011;743;47.076;15.494;2023-02-28T01:35:32;38.38;;;25.30;;
1503;SDS011;743;47.076;15.494;2023-02-28T01:38:03;33.08;;;22.05;;
1503;SDS011;743;47.076;15.494;2023-02-28T01:40:30;37.92;;;22.85;;
1503;SDS011;743;47.076;15.494;2023-02-28T01:42:59;27.45;;;17.98;;
1503;SDS011;743;47.076;15.494;2023-02-28T01:45:27;32.20;;;21.20;;
1503;SDS011;743;47.076;15.494;2023-02-28T01:48:02;31.08;;;22.55;;
1503;SDS011;743;47.076;15.494;2023-02-28T01:50:33;35.55;;;19.90;;
1503;SDS011;743;47.076;15.494;2023-02-28T01:53:05;25.58;;;17.52;;
1503;SDS011;743;47.076;15.494;2023-02-28T01:55:38;35.25;;;21.80;;
1503;SDS011;743;47.076;15.494;2023-02-28T01:58:07;36.00;;;22.80;;
1503;SDS011;743;47.076;15.494;2023-02-28T02:00:41;33.67;;;22.40;;
1503;SDS011;743;47.076;15.494;2023-02-28T02:03:11;28.58;;;18.25;;
1503;SDS011;743;47.076;15.494;2023-02-28T02:05:44;38.83;;;25.98;;
1503;SDS011;743;47.076;15.494;2023-02-28T02:08:16;41.03;;;27.10;;
1503;SDS011;743;47.076;15.494;2023-02-28T02:10:48;35.97;;;22.80;;
1503;SDS011;743;47.076;15.494;2023-02-28T02:16:22;37.60;;;23.05;;
1503;SDS011;743;47.076;15.494;2023-02-28T02:19:04;55.00;;;31.52;;
1503;SDS011;743;47.076;15.494;2023-02-28T02:21:58;39.30;;;24.52;;
1503;SDS011;743;47.076;15.494;2023-02-28T02:27:48;44.47;;;30.95;;
1503;SDS011;743;47.076;15.494;2023-02-28T02:30:44;32.63;;;18.95;;
1503;SDS011;743;47.076;15.494;2023-02-28T02:33:48;31.20;;;21.58;;
1503;SDS011;743;47.076;15.494;2023-02-28T02:39:31;48.30;;;29.83;;
1503;SDS011;743;47.076;15.494;2023-02-28T02:42:04;39.65;;;26.33;;
1503;SDS011;743;47.076;15.494;2023-02-28T02:44:45;38.80;;;23.13;;
1503;SDS011;743;47.076;15.494;2023-02-28T02:47:25;42.58;;;27.75;;
1503;SDS011;743;47.076;15.494;2023-02-28T02:49:58;38.53;;;24.27;;
1503;SDS011;743;47.076;15.494;2023-02-28T02:52:34;46.17;;;26.83;;
1503;SDS011;743;47.076;15.494;2023-02-28T02:55:06;44.97;;;26.17;;
1503;SDS011;743;47.076;15.494;2023-02-28T02:57:36;41.00;;;23.75;;
1503;SDS011;743;47.076;15.494;2023-02-28T03:00:09;26.02;;;19.40;;
1503;SDS011;743;47.076;15.494;2023-02-28T03:02:39;34.17;;;20.20;;
1503;SDS011;743;47.076;15.494;2023-02-28T03:05:12;30.33;;;19.35;;
1503;SDS011;743;47.076;15.494;2023-02-28T03:07:52;37.65;;;23.52;;
1503;SDS011;743;47.076;15.494;2023-02-28T03:10:35;26.10;;;17.30;;
1503;SDS011;743;47.076;15.494;2023-02-28T03:19:40;33.50;;;21.42;;
1503;SDS011;743;47.076;15.494;2023-02-28T03:22:26;29.08;;;17.77;;
1503;SDS011;743;47.076;15.494;2023-02-28T03:25:07;43.67;;;24.55;;
1503;SDS011;743;47.076;15.494;2023-02-28T03:27:39;42.45;;;24.90;;
1503;SDS011;743;47.076;15.494;2023-02-28T03:30:17;40.25;;;22.77;;
1503;SDS011;743;47.076;15.494;2023-02-28T03:32:53;25.67;;;15.65;;
1503;SDS011;743;47.076;15.494;2023-02-28T03:35:26;31.10;;;20.30;;
1503;SDS011;743;47.076;15.494;2023-02-28T03:38:00;35.40;;;21.67;;
1503;SDS011;743;47.076;15.494;2023-02-28T03:40:33;28.45;;;16.02;;
1503;SDS011;743;47.076;15.494;2023-02-28T03:43:08;25.58;;;13.18;;
1503;SDS011;743;47.076;15.494;2023-02-28T03:45:39;30.63;;;15.63;;
1503;SDS011;743;47.076;15.494;2023-02-28T03:48:12;23.80;;;12.23;;
1503;SDS011;743;47.076;15.494;2023-02-28T03:50:41;30.02;;;15.73;;
1503;SDS011;743;47.076;15.494;2023-02-28T03:53:14;22.88;;;12.50;;
1503;SDS011;743;47.076;15.494;2023-02-28T03:55:50;36.75;;;18.13;;
1503;SDS011;743;47.076;15.494;2023-02-28T03:58:21;21.90;;;11.80;;
1503;SDS011;743;47.076;15.494;2023-02-28T04:00:55;35.97;;;20.23;;
1503;SDS011;743;47.076;15.494;2023-02-28T04:03:33;30.65;;;14.77;;
1503;SDS011;743;47.076;15.494;2023-02-28T04:06:02;24.42;;;14.90;;
1503;SDS011;743;47.076;15.494;2023-02-28T04:08:40;25.13;;;12.95;;
1503;SDS011;743;47.076;15.494;2023-02-28T04:11:12;39.20;;;18.55;;
1503;SDS011;743;47.076;15.494;2023-02-28T04:13:45;35.13;;;18.70;;
1503;SDS011;743;47.076;15.494;2023-02-28T04:16:13;33.00;;;17.77;;
1503;SDS011;743;47.076;15.494;2023-02-28T04:18:44;28.90;;;17.80;;
1503;SDS011;743;47.076;15.494;2023-02-28T04:21:11;40.15;;;24.15;;
1503;SDS011;743;47.076;15.494;2023-02-28T04:23:39;36.38;;;19.83;;
1503;SDS011;743;47.076;15.494;2023-02-28T04:26:11;29.17;;;17.80;;
1503;SDS011;743;47.076;15.494;2023-02-28T04:28:38;43.38;;;25.67;;
1503;SDS011;743;47.076;15.494;2023-02-28T04:31:06;36.70;;;23.55;;
1503;SDS011;743;47.076;15.494;2023-02-28T04:33:33;36.65;;;22.10;;
1503;SDS011;743;47.076;15.494;2023-02-28T04:36:05;36.25;;;21.40;;
1503;SDS011;743;47.076;15.494;2023-02-28T04:38:35;42.03;;;23.50;;
1503;SDS011;743;47.076;15.494;2023-02-28T04:41:05;30.90;;;18.27;;
1503;SDS011;743;47.076;15.494;2023-02-28T04:43:37;34.42;;;21.25;;
1503;SDS011;743;47.076;15.494;2023-02-28T04:46:07;35.58;;;23.63;;
1503;SDS011;743;47.076;15.494;2023-02-28T04:48:36;20.55;;;13.63;;
1503;SDS011;743;47.076;15.494;2023-02-28T04:51:06;19.87;;;13.33;;
1503;SDS011;743;47.076;15.494;2023-02-28T04:53:35;27.08;;;18.45;;
1503;SDS011;743;47.076;15.494;2023-02-28T04:56:04;32.75;;;21.58;;
1503;SDS011;743;47.076;15.494;2023-02-28T04:58:39;25.85;;;15.98;;
1503;SDS011;743;47.076;15.494;2023-02-28T05:01:07;32.83;;;19.08;;
1503;SDS011;743;47.076;15.494;2023-02-28T05:03:49;52.38;;;24.30;;
1503;SDS011;743;47.076;15.494;2023-02-28T05:06:17;19.75;;;13.50;;
1503;SDS011;743;47.076;15.494;2023-02-28T05:08:45;39.88;;;22.38;;
1503;SDS011;743;47.076;15.494;2023-02-28T05:11:19;29.70;;;17.45;;
1503;SDS011;743;47.076;15.494;2023-02-28T05:13:50;35.42;;;23.30;;
1503;SDS011;743;47.076;15.494;2023-02-28T05:16:18;32.15;;;17.58;;
1503;SDS011;743;47.076;15.494;2023-02-28T05:18:47;37.72;;;19.60;;
1503;SDS011;743;47.076;15.494;2023-02-28T05:21:22;28.30;;;16.90;;
1503;SDS011;743;47.076;15.494;2023-02-28T05:23:54;33.50;;;18.80;;
1503;SDS011;743;47.076;15.494;2023-02-28T05:26:23;34.70;;;18.50;;
1503;SDS011;743;47.076;15.494;2023-02-28T05:28:55;40.22;;;22.70;;
1503;SDS011;743;47.076;15.494;2023-02-28T05:31:23;38.60;;;25.17;;
1503;SDS011;743;47.076;15.494;2023-02-28T05:33:53;43.25;;;21.27;;
1503;SDS011;743;47.076;15.494;2023-02-28T05:36:25;38.30;;;22.23;;
1503;SDS011;743;47.076;15.494;2023-02-28T05:38:54;37.58;;;22.08;;
1503;SDS011;743;47.076;15.494;2023-02-28T05:41:22;24.38;;;13.77;;
1503;SDS011;743;47.076;15.494;2023-02-28T05:43:50;34.10;;;20.23;;
1503;SDS011;743;47.076;15.494;2023-02-28T05:46:20;28.70;;;15.27;;
1503;SDS011;743;47.076;15.494;2023-02-28T05:48:49;39.30;;;22.63;;
1503;SDS011;743;47.076;15.494;2023-02-28T05:51:17;36.00;;;27.85;;
1503;SDS011;743;47.076;15.494;2023-02-28T05:53:45;101.10;;;70.32;;
1503;SDS011;743;47.076;15.494;2023-02-28T05:56:13;109.15;;;79.60;;
1503;SDS011;743;47.076;15.494;2023-02-28T05:58:40;96.82;;;77.50;;
1503;SDS011;743;47.076;15.494;2023-02-28T06:01:22;63.53;;;51.00;;
1503;SDS011;743;47.076;15.494;2023-02-28T06:04:00;49.65;;;33.25;;
1503;SDS011;743;47.076;15.494;2023-02-28T06:08:59;36.03;;;18.17;;
1503;SDS011;743;47.076;15.494;2023-02-28T06:11:26;36.40;;;15.43;;
1503;SDS011;743;47.076;15.494;2023-02-28T06:13:55;51.10;;;22.38;;
1503;SDS011;743;47.076;15.494;2023-02-28T06:16:29;41.25;;;19.27;;
1503;SDS011;743;47.076;15.494;2023-02-28T06:18:59;46.35;;;19.17;;
1503;SDS011;743;47.076;15.494;2023-02-28T06:21:30;40.03;;;20.00;;
1503;SDS011;743;47.076;15.494;2023-02-28T06:23:58;35.33;;;17.70;;
1503;SDS011;743;47.076;15.494;2023-02-28T06:26:30;38.88;;;17.33;;
1503;SDS011;743;47.076;15.494;2023-02-28T06:28:58;46.30;;;18.90;;
1503;SDS011;743;47.076;15.494;2023-02-28T06:31:29;44.30;;;20.85;;
1503;SDS011;743;47.076;15.494;2023-02-28T06:33:56;48.42;;;19.92;;
1503;SDS011;743;47.076;15.494;2023-02-28T06:36:24;40.78;;;19.65;;
1503;SDS011;743;47.076;15.494;2023-02-28T06:38:53;43.80;;;19.57;;
1503;SDS011;743;47.076;15.494;2023-02-28T06:41:23;53.60;;;26.25;;
1503;SDS011;743;47.076;15.494;2023-02-28T06:43:52;46.35;;;20.65;;
1503;SDS011;743;47.076;15.494;2023-02-28T06:46:23;48.30;;;20.95;;
1503;SDS011;743;47.076;15.494;2023-02-28T06:48:55;50.22;;;21.92;;
1503;SDS011;743;47.076;15.494;2023-02-28T06:51:24;45.95;;;19.00;;
1503;SDS011;743;47.076;15.494;2023-02-28T06:53:52;52.22;;;23.75;;
1503;SDS011;743;47.076;15.494;2023-02-28T06:56:20;31.20;;;14.77;;
1503;SDS011;743;47.076;15.494;2023-02-28T06:58:51;68.53;;;29.08;;
1503;SDS011;743;47.076;15.494;2023-02-28T07:01:19;41.05;;;20.13;;
1503;SDS011;743;47.076;15.494;2023-02-28T07:03:49;46.83;;;20.58;;
1503;SDS011;743;47.076;15.494;2023-02-28T07:06:19;50.10;;;21.35;;
1503;SDS011;743;47.076;15.494;2023-02-28T07:08:47;44.83;;;20.45;;
1503;SDS011;743;47.076;15.494;2023-02-28T07:11:15;56.42;;;23.00;;
1503;SDS011;743;47.076;15.494;2023-02-28T07:13:44;47.92;;;20.65;;
1503;SDS011;743;47.076;15.494;2023-02-28T07:16:13;47.67;;;20.98;;
1503;SDS011;743;47.076;15.494;2023-02-28T07:21:12;40.13;;;18.45;;
1503;SDS011;743;47.076;15.494;2023-02-28T07:23:43;38.05;;;17.67;;
1503;SDS011;743;47.076;15.494;2023-02-28T07:26:11;46.78;;;20.88;;
1503;SDS011;743;47.076;15.494;2023-02-28T07:28:42;38.20;;;18.10;;
1503;SDS011;743;47.076;15.494;2023-02-28T07:31:11;27.93;;;13.40;;
1503;SDS011;743;47.076;15.494;2023-02-28T07:33:43;40.05;;;19.92;;
1503;SDS011;743;47.076;15.494;2023-02-28T07:36:12;43.85;;;18.42;;
1503;SDS011;743;47.076;15.494;2023-02-28T07:38:44;43.63;;;20.35;;
1503;SDS011;743;47.076;15.494;2023-02-28T07:41:15;50.90;;;23.85;;
1503;SDS011;743;47.076;15.494;2023-02-28T07:43:43;80.38;;;45.53;;
1503;SDS011;743;47.076;15.494;2023-02-28T07:46:11;100.88;;;76.07;;
1503;SDS011;743;47.076;15.494;2023-02-28T07:48:41;51.05;;;35.83;;
1503;SDS011;743;47.076;15.494;2023-02-28T07:51:10;31.92;;;16.55;;
1503;SDS011;743;47.076;15.494;2023-02-28T07:53:38;41.03;;;19.70;;
1503;SDS011;743;47.076;15.494;2023-02-28T07:56:08;34.15;;;17.80;;
1503;SDS011;743;47.076;15.494;2023-02-28T07:58:38;37.30;;;19.45;;
1503;SDS011;743;47.076;15.494;2023-02-28T08:01:05;43.75;;;22.58;;
1503;SDS011;743;47.076;15.494;2023-02-28T08:03:34;35.58;;;18.15;;
1503;SDS011;743;47.076;15.494;2023-02-28T08:06:13;43.08;;;21.27;;
1503;SDS011;743;47.076;15.494;2023-02-28T08:08:43;38.75;;;17.25;;
1503;SDS011;743;47.076;15.494;2023-02-28T08:11:13;33.20;;;15.88;;
1503;SDS011;743;47.076;15.494;2023-02-28T08:13:41;44.65;;;21.73;;
1503;SDS011;743;47.076;15.494;2023-02-28T08:16:10;37.38;;;16.83;;
1503;SDS011;743;47.076;15.494;2023-02-28T08:18:42;41.97;;;19.70;;
1503;SDS011;743;47.076;15.494;2023-02-28T08:21:10;39.97;;;20.02;;
1503;SDS011;743;47.076;15.494;2023-02-28T08:23:38;30.52;;;14.55;;
1503;SDS011;743;47.076;15.494;2023-02-28T08:26:09;40.47;;;20.75;;
1503;SDS011;743;47.076;15.494;2023-02-28T08:28:41;37.63;;;17.07;;
1503;SDS011;743;47.076;15.494;2023-02-28T08:31:12;36.53;;;17.90;;
1503;SDS011;743;47.076;15.494;2023-02-28T08:33:41;42.33;;;18.52;;
1503;SDS011;743;47.076;15.494;2023-02-28T08:36:09;20.02;;;10.68;;
1503;SDS011;743;47.076;15.494;2023-02-28T08:38:37;43.00;;;18.98;;
1503;SDS011;743;47.076;15.494;2023-02-28T08:41:06;50.78;;;21.67;;
1503;SDS011;743;47.076;15.494;2023-02-28T08:43:37;51.28;;;21.73;;
1503;SDS011;743;47.076;15.494;2023-02-28T08:46:07;31.90;;;16.40;;
1503;SDS011;743;47.076;15.494;2023-02-28T08:48:37;42.97;;;19.70;;
1503;SDS011;743;47.076;15.494;2023-02-28T08:51:06;53.17;;;24.02;;
1503;SDS011;743;47.076;15.494;2023-02-28T08:53:41;44.10;;;20.25;;
1503;SDS011;743;47.076;15.494;2023-02-28T08:56:11;44.50;;;19.98;;
1503;SDS011;743;47.076;15.494;2023-02-28T08:58:41;38.10;;;19.15;;
1503;SDS011;743;47.076;15.494;2023-02-28T09:01:15;26.60;;;13.85;;
1503;SDS011;743;47.076;15.494;2023-02-28T09:04:08;48.67;;;21.65;;
1503;SDS011;743;47.076;15.494;2023-02-28T09:06:41;33.10;;;14.68;;
1503;SDS011;743;47.076;15.494;2023-02-28T09:09:18;25.35;;;13.15;;
1503;SDS011;743;47.076;15.494;2023-02-28T09:14:49;26.92;;;13.18;;
1503;SDS011;743;47.076;15.494;2023-02-28T09:17:22;45.88;;;21.17;;
1503;SDS011;743;47.076;15.494;2023-02-28T09:19:51;31.10;;;16.00;;
1503;SDS011;743;47.076;15.494;2023-02-28T09:22:21;34.03;;;14.90;;
1503;SDS011;743;47.076;15.494;2023-02-28T09:24:49;35.38;;;16.17;;
1503;SDS011;743;47.076;15.494;2023-02-28T09:27:16;31.67;;;14.80;;
1503;SDS011;743;47.076;15.494;2023-02-28T09:29:44;31.52;;;14.77;;
1503;SDS011;743;47.076;15.494;2023-02-28T09:32:13;33.05;;;15.90;;
1503;SDS011;743;47.076;15.494;2023-02-28T09:34:43;26.38;;;12.35;;
1503;SDS011;743;47.076;15.494;2023-02-28T09:37:10;27.27;;;12.60;;
1503;SDS011;743;47.076;15.494;2023-02-28T09:39:38;29.17;;;13.55;;
1503;SDS011;743;47.076;15.494;2023-02-28T09:42:05;37.20;;;16.25;;
1503;SDS011;743;47.076;15.494;2023-02-28T09:44:40;33.67;;;16.00;;
1503;SDS011;743;47.076;15.494;2023-02-28T09:47:13;28.50;;;13.07;;
1503;SDS011;743;47.076;15.494;2023-02-28T09:49:45;32.63;;;15.30;;
1503;SDS011;743;47.076;15.494;2023-02-28T09:52:14;35.15;;;14.00;;
1503;SDS011;743;47.076;15.494;2023-02-28T09:54:45;36.25;;;16.88;;
1503;SDS011;743;47.076;15.494;2023-02-28T09:57:14;32.35;;;14.25;;
1503;SDS011;743;47.076;15.494;2023-02-28T09:59:53;41.20;;;19.20;;
1503;SDS011;743;47.076;15.494;2023-02-28T10:02:48;36.75;;;18.30;;
1503;SDS011;743;47.076;15.494;2023-02-28T10:05:30;34.03;;;15.95;;
1503;SDS011;743;47.076;15.494;2023-02-28T10:08:05;29.70;;;14.23;;
1503;SDS011;743;47.076;15.494;2023-02-28T10:10:40;28.65;;;14.45;;
1503;SDS011;743;47.076;15.494;2023-02-28T10:13:13;29.25;;;12.98;;
1503;SDS011;743;47.076;15.494;2023-02-28T10:15:48;35.97;;;15.15;;
1503;SDS011;743;47.076;15.494;2023-02-28T10:18:23;33.42;;;14.80;;
1503;SDS011;743;47.076;15.494;2023-02-28T10:20:53;32.67;;;15.50;;
1503;SDS011;743;47.076;15.494;2023-02-28T10:23:24;36.67;;;16.42;;
1503;SDS011;743;47.076;15.494;2023-02-28T10:25:55;26.02;;;12.70;;
1503;SDS011;743;47.076;15.494;2023-02-28T10:28:26;30.05;;;14.63;;
1503;SDS011;743;47.076;15.494;2023-02-28T10:30:57;29.95;;;13.10;;
1503;SDS011;743;47.076;15.494;2023-02-28T10:33:28;32.63;;;15.35;;
1503;SDS011;743;47.076;15.494;2023-02-28T10:35:57;38.03;;;16.50;;
1503;SDS011;743;47.076;15.494;2023-02-28T10:38:25;34.97;;;15.80;;
1503;SDS011;743;47.076;15.494;2023-02-28T10:43:30;38.42;;;17.60;;
1503;SDS011;743;47.076;15.494;2023-02-28T10:45:58;34.20;;;16.73;;
1503;SDS011;743;47.076;15.494;2023-02-28T10:48:37;27.95;;;14.75;;
1503;SDS011;743;47.076;15.494;2023-02-28T10:53:47;24.55;;;11.88;;
1503;SDS011;743;47.076;15.494;2023-02-28T10:56:17;23.52;;;11.27;;
1503;SDS011;743;47.076;15.494;2023-02-28T10:58:49;28.63;;;13.73;;
1503;SDS011;743;47.076;15.494;2023-02-28T11:01:19;28.02;;;13.02;;
1503;SDS011;743;47.076;15.494;2023-02-28T11:03:52;28.95;;;14.40;;
1503;SDS011;743;47.076;15.494;2023-02-28T11:06:20;33.78;;;13.82;;
1503;SDS011;743;47.076;15.494;2023-02-28T11:08:52;28.50;;;13.45;;
1503;SDS011;743;47.076;15.494;2023-02-28T11:11:21;28.50;;;14.52;;
1503;SDS011;743;47.076;15.494;2023-02-28T11:13:52;36.35;;;16.52;;
1503;SDS011;743;47.076;15.494;2023-02-28T11:16:20;29.75;;;13.45;;
1503;SDS011;743;47.076;15.494;2023-02-28T11:18:49;30.52;;;15.10;;
1503;SDS011;743;47.076;15.494;2023-02-28T11:21:23;39.17;;;17.83;;
1503;SDS011;743;47.076;15.494;2023-02-28T11:23:56;41.60;;;17.42;;
1503;SDS011;743;47.076;15.494;2023-02-28T11:26:36;38.03;;;18.13;;
1503;SDS011;743;47.076;15.494;2023-02-28T11:29:12;31.75;;;14.50;;
1503;SDS011;743;47.076;15.494;2023-02-28T11:32:05;34.15;;;14.57;;
1503;SDS011;743;47.076;15.494;2023-02-28T11:34:40;41.58;;;18.23;;
1503;SDS011;743;47.076;15.494;2023-02-28T11:37:12;30.08;;;14.02;;
1503;SDS011;743;47.076;15.494;2023-02-28T11:39:41;39.10;;;18.80;;
1503;SDS011;743;47.076;15.494;2023-02-28T11:42:31;47.90;;;19.05;;
1503;SDS011;743;47.076;15.494;2023-02-28T11:45:16;34.08;;;15.77;;
1503;SDS011;743;47.076;15.494;2023-02-28T11:47:53;31.90;;;15.90;;
1503;SDS011;743;47.076;15.494;2023-02-28T11:50:43;39.45;;;18.85;;
1503;SDS011;743;47.076;15.494;2023-02-28T11:53:19;36.20;;;17.02;;
1503;SDS011;743;47.076;15.494;2023-02-28T11:55:52;33.92;;;14.02;;
1503;SDS011;743;47.076;15.494;2023-02-28T11:58:27;37.60;;;16.83;;
1503;SDS011;743;47.076;15.494;2023-02-28T12:01:09;32.67;;;15.30;;
1503;SDS011;743;47.076;15.494;2023-02-28T12:03:58;38.97;;;16.50;;
1503;SDS011;743;47.076;15.494;2023-02-28T12:06:38;32.78;;;15.38;;
1503;SDS011;743;47.076;15.494;2023-02-28T12:12:06;36.45;;;17.55;;
1503;SDS011;743;47.076;15.494;2023-02-28T12:14:52;29.05;;;14.98;;
1503;SDS011;743;47.076;15.494;2023-02-28T12:17:34;46.20;;;21.13;;
1503;SDS011;743;47.076;15.494;2023-02-28T12:20:15;40.22;;;19.23;;
1503;SDS011;743;47.076;15.494;2023-02-28T12:22:53;46.15;;;20.70;;
1503;SDS011;743;47.076;15.494;2023-02-28T12:28:17;42.95;;;19.30;;
1503;SDS011;743;47.076;15.494;2023-02-28T12:30:51;44.55;;;17.15;;
1503;SDS011;743;47.076;15.494;2023-02-28T12:33:24;43.88;;;20.20;;
1503;SDS011;743;47.076;15.494;2023-02-28T12:35:55;54.38;;;24.02;;
1503;SDS011;743;47.076;15.494;2023-02-28T12:38:26;65.70;;;29.55;;
1503;SDS011;743;47.076;15.494;2023-02-28T12:41:00;50.40;;;21.27;;
1503;SDS011;743;47.076;15.494;2023-02-28T12:43:30;41.40;;;18.67;;
1503;SDS011;743;47.076;15.494;2023-02-28T12:46:00;48.95;;;23.38;;
1503;SDS011;743;47.076;15.494;2023-02-28T12:48:37;43.45;;;21.42;;
1503;SDS011;743;47.076;15.494;2023-02-28T12:51:08;35.13;;;16.88;;
1503;SDS011;743;47.076;15.494;2023-02-28T12:53:40;60.58;;;24.35;;
1503;SDS011;743;47.076;15.494;2023-02-28T12:56:19;54.78;;;24.02;;
1503;SDS011;743;47.076;15.494;2023-02-28T12:58:54;36.70;;;17.90;;
1503;SDS011;743;47.076;15.494;2023-02-28T13:01:42;51.85;;;22.15;;
1503;SDS011;743;47.076;15.494;2023-02-28T13:07:36;30.58;;;17.55;;
1503;SDS011;743;47.076;15.494;2023-02-28T13:10:17;47.92;;;22.45;;
1503;SDS011;743;47.076;15.494;2023-02-28T13:12:58;39.08;;;19.67;;
1503;SDS011;743;47.076;15.494;2023-02-28T13:15:29;52.33;;;26.10;;
1503;SDS011;743;47.076;15.494;2023-02-28T13:18:00;38.83;;;18.45;;
1503;SDS011;743;47.076;15.494;2023-02-28T13:20:29;54.97;;;25.08;;
1503;SDS011;743;47.076;15.494;2023-02-28T13:23:02;43.10;;;21.02;;
1503;SDS011;743;47.076;15.494;2023-02-28T13:35:11;48.88;;;30.48;;
1503;SDS011;743;47.076;15.494;2023-02-28T13:40:52;33.33;;;20.27;;
1503;SDS011;743;47.076;15.494;2023-02-28T13:43:21;62.95;;;35.10;;
1503;SDS011;743;47.076;15.494;2023-02-28T13:46:28;51.08;;;27.88;;
1503;SDS011;743;47.076;15.494;2023-02-28T13:49:01;45.88;;;21.52;;
1503;SDS011;743;47.076;15.494;2023-02-28T13:51:47;44.30;;;28.83;;
1503;SDS011;743;47.076;15.494;2023-02-28T13:56:46;52.17;;;29.40;;
1503;SDS011;743;47.076;15.494;2023-02-28T13:59:23;52.30;;;29.67;;
1503;SDS011;743;47.076;15.494;2023-02-28T14:05:22;57.95;;;33.85;;
1503;SDS011;743;47.076;15.494;2023-02-28T14:07:56;48.03;;;28.15;;
1503;SDS011;743;47.076;15.494;2023-02-28T14:10:26;49.03;;;31.13;;
1503;SDS011;743;47.076;15.494;2023-02-28T14:12:58;49.08;;;30.20;;
1503;SDS011;743;47.076;15.494;2023-02-28T14:15:39;55.42;;;32.03;;
1503;SDS011;743;47.076;15.494;2023-02-28T14:18:14;39.30;;;23.92;;
1503;SDS011;743;47.076;15.494;2023-02-28T14:20:45;44.78;;;29.35;;
1503;SDS011;743;47.076;15.494;2023-02-28T14:23:18;39.95;;;26.13;;
1503;SDS011;743;47.076;15.494;2023-02-28T14:28:43;35.13;;;29.85;;
1503;SDS011;743;47.076;15.494;2023-02-28T14:31:23;31.85;;;20.98;;
1503;SDS011;743;47.076;15.494;2023-02-28T14:34:01;28.42;;;15.40;;
1503;SDS011;743;47.076;15.494;2023-02-28T14:36:39;40.65;;;23.83;;
1503;SDS011;743;47.076;15.494;2023-02-28T14:39:13;35.67;;;21.75;;
1503;SDS011;743;47.076;15.494;2023-02-28T14:41:42;38.05;;;24.50;;
1503;SDS011;743;47.076;15.494;2023-02-28T14:44:14;36.05;;;21.10;;
1503;SDS011;743;47.076;15.494;2023-02-28T14:46:43;37.75;;;21.73;;
1503;SDS011;743;47.076;15.494;2023-02-28T14:49:15;33.55;;;19.98;;
1503;SDS011;743;47.076;15.494;2023-02-28T14:51:46;40.63;;;22.38;;
1503;SDS011;743;47.076;15.494;2023-02-28T14:54:26;42.75;;;26.00;;
1503;SDS011;743;47.076;15.494;2023-02-28T14:56:53;45.88;;;28.55;;
1503;SDS011;743;47.076;15.494;2023-02-28T14:59:24;40.13;;;23.10;;
1503;SDS011;743;47.076;15.494;2023-02-28T15:04:53;37.22;;;19.75;;
1503;SDS011;743;47.076;15.494;2023-02-28T15:07:23;43.63;;;25.30;;
1503;SDS011;743;47.076;15.494;2023-02-28T15:12:55;29.73;;;16.60;;
1503;SDS011;743;47.076;15.494;2023-02-28T15:15:26;35.25;;;20.80;;
1503;SDS011;743;47.076;15.494;2023-02-28T15:18:03;39.60;;;20.55;;
1503;SDS011;743;47.076;15.494;2023-02-28T15:20:35;56.60;;;27.92;;
1503;SDS011;743;47.076;15.494;2023-02-28T15:23:05;42.53;;;23.48;;
1503;SDS011;743;47.076;15.494;2023-02-28T15:25:34;44.58;;;22.08;;
1503;SDS011;743;47.076;15.494;2023-02-28T15:28:01;40.90;;;22.55;;
1503;SDS011;743;47.076;15.494;2023-02-28T15:30:30;53.67;;;26.33;;
1503;SDS011;743;47.076;15.494;2023-02-28T15:33:04;54.08;;;27.10;;
1503;SDS011;743;47.076;15.494;2023-02-28T15:35:36;45.95;;;22.02;;
1503;SDS011;743;47.076;15.494;2023-02-28T15:38:12;42.55;;;22.45;;
1503;SDS011;743;47.076;15.494;2023-02-28T15:40:45;47.97;;;26.70;;
1503;SDS011;743;47.076;15.494;2023-02-28T15:43:22;51.22;;;20.70;;
1503;SDS011;743;47.076;15.494;2023-02-28T15:45:55;55.30;;;23.15;;
1503;SDS011;743;47.076;15.494;2023-02-28T15:48:26;42.08;;;18.65;;
1503;SDS011;743;47.076;15.494;2023-02-28T15:50:56;45.13;;;20.05;;
1503;SDS011;743;47.076;15.494;2023-02-28T15:53:25;34.17;;;17.08;;
1503;SDS011;743;47.076;15.494;2023-02-28T15:56:01;44.05;;;19.83;;
1503;SDS011;743;47.076;15.494;2023-02-28T15:58:31;54.75;;;24.20;;
1503;SDS011;743;47.076;15.494;2023-02-28T16:01:07;35.50;;;17.88;;
1503;SDS011;743;47.076;15.494;2023-02-28T16:03:45;39.72;;;19.38;;
1503;SDS011;743;47.076;15.494;2023-02-28T16:09:11;45.85;;;20.63;;
1503;SDS011;743;47.076;15.494;2023-02-28T16:11:43;44.85;;;19.90;;
1503;SDS011;743;47.076;15.494;2023-02-28T16:14:13;46.22;;;20.48;;
1503;SDS011;743;47.076;15.494;2023-02-28T16:16:44;37.08;;;18.02;;
1503;SDS011;743;47.076;15.494;2023-02-28T16:19:15;45.70;;;21.15;;
1503;SDS011;743;47.076;15.494;2023-02-28T16:21:43;42.63;;;20.23;;
1503;SDS011;743;47.076;15.494;2023-02-28T16:24:11;44.53;;;20.30;;
1503;SDS011;743;47.076;15.494;2023-02-28T16:26:41;59.72;;;25.35;;
1503;SDS011;743;47.076;15.494;2023-02-28T16:29:13;48.33;;;25.80;;